createdAt,value
2023-05-06T00:01:58.076Z,137.20
2023-05-06T00:04:24.804Z,139.00
2023-05-06T00:06:51.499Z,142.00
2023-05-06T00:09:18.137Z,145.55
2023-05-06T00:11:45.878Z,147.25
2023-05-06T00:14:12.539Z,141.75
2023-05-06T00:16:39.234Z,144.75
2023-05-06T00:19:06.202Z,129.15
2023-05-06T00:21:32.754Z,135.35
2023-05-06T00:23:59.508Z,135.75
2023-05-06T00:26:26.198Z,130.75
2023-05-06T00:28:52.800Z,127.70
2023-05-06T00:31:19.454Z,126.13
2023-05-06T00:33:46.035Z,122.25
2023-05-06T00:36:12.766Z,116.78
2023-05-06T00:38:39.384Z,115.03
2023-05-06T00:41:06.242Z,105.18
2023-05-06T00:43:32.832Z,100.15
2023-05-06T00:45:59.538Z,96.40
2023-05-06T00:48:26.251Z,92.97
2023-05-06T00:50:53.062Z,85.88
2023-05-06T00:53:21.915Z,86.30
2023-05-06T00:55:49.921Z,85.18
2023-05-06T00:58:17.069Z,85.28
2023-05-06T01:00:44.662Z,87.00
2023-05-06T01:03:11.610Z,88.60
2023-05-06T01:06:04.605Z,88.63
2023-05-06T01:08:37.531Z,85.88
2023-05-06T01:11:37.383Z,86.05
2023-05-06T01:14:33.336Z,80.70
2023-05-06T01:17:04.362Z,76.38
2023-05-06T01:19:42.053Z,77.72
2023-05-06T01:22:10.382Z,71.28
2023-05-06T01:24:41.841Z,66.78
2023-05-06T01:27:09.893Z,64.35
2023-05-06T01:29:39.085Z,63.00
2023-05-06T01:32:36.261Z,61.72
2023-05-06T01:35:29.020Z,57.15
2023-05-06T01:38:01.430Z,58.05
2023-05-06T01:40:30.337Z,53.05
2023-05-06T01:42:57.616Z,51.53
2023-05-06T01:45:27.813Z,50.35
2023-05-06T01:47:54.764Z,48.97
2023-05-06T01:50:21.672Z,47.55
2023-05-06T01:53:08.911Z,47.15
2023-05-06T01:55:35.480Z,43.15
2023-05-06T01:58:02.229Z,44.00
2023-05-06T02:00:28.865Z,43.08
2023-05-06T02:02:55.538Z,41.35
2023-05-06T02:05:22.224Z,39.60
2023-05-06T02:07:48.812Z,39.88
2023-05-06T02:10:15.430Z,40.63
2023-05-06T02:12:42.035Z,39.15
2023-05-06T02:15:09.302Z,39.55
2023-05-06T02:17:37.739Z,38.92
2023-05-06T02:20:04.900Z,37.38
2023-05-06T02:22:31.655Z,37.33
2023-05-06T02:24:58.196Z,35.83
2023-05-06T02:27:24.745Z,36.75
2023-05-06T02:29:51.335Z,34.45
2023-05-06T02:32:17.925Z,36.53
2023-05-06T02:34:44.451Z,35.83
2023-05-06T02:37:11.023Z,35.95
2023-05-06T02:39:37.604Z,36.53
2023-05-06T02:42:04.517Z,34.97
2023-05-06T02:44:31.422Z,36.58
2023-05-06T02:46:57.976Z,39.30
2023-05-06T02:49:24.657Z,45.33
2023-05-06T02:51:51.236Z,48.97
2023-05-06T02:54:17.796Z,51.63
2023-05-06T02:56:46.317Z,52.30
2023-05-06T02:59:13.739Z,51.47
2023-05-06T03:01:40.671Z,50.50
2023-05-06T03:04:07.383Z,51.72
2023-05-06T03:06:34.019Z,48.05
2023-05-06T03:09:00.561Z,48.53
2023-05-06T03:11:27.144Z,49.10
2023-05-06T03:13:53.716Z,51.90
2023-05-06T03:16:20.445Z,50.42
2023-05-06T03:18:47.043Z,52.00
2023-05-06T03:21:14.217Z,52.85
2023-05-06T03:23:40.812Z,54.60
2023-05-06T03:26:07.441Z,57.65
2023-05-06T03:28:34.082Z,57.80
2023-05-06T03:31:00.721Z,58.13
2023-05-06T03:33:27.262Z,57.80
2023-05-06T03:35:53.877Z,58.40
2023-05-06T03:38:20.461Z,58.80
2023-05-06T03:40:47.280Z,58.58
2023-05-06T03:43:13.849Z,60.95
2023-05-06T03:45:40.529Z,62.67
2023-05-06T03:48:07.125Z,66.25
2023-05-06T03:50:33.858Z,67.45
2023-05-06T03:53:00.552Z,71.55
2023-05-06T03:55:27.142Z,71.13
2023-05-06T03:57:53.730Z,69.78
2023-05-06T04:00:20.797Z,70.28
2023-05-06T04:02:47.406Z,73.47
2023-05-06T04:05:14.146Z,74.28
2023-05-06T04:07:40.713Z,73.28
2023-05-06T04:10:08.088Z,76.57
2023-05-06T04:12:34.690Z,76.90
2023-05-06T04:15:01.297Z,75.70
2023-05-06T04:17:27.919Z,75.97
2023-05-06T04:19:54.503Z,79.07
2023-05-06T04:22:21.272Z,80.53
2023-05-06T04:24:47.863Z,81.68
2023-05-06T04:27:15.105Z,81.93
2023-05-06T04:29:41.719Z,85.50
2023-05-06T04:32:10.294Z,87.68
2023-05-06T04:34:36.940Z,90.47
2023-05-06T04:37:03.776Z,95.15
2023-05-06T04:39:31.959Z,93.22
2023-05-06T04:41:58.621Z,93.03
2023-05-06T04:44:25.229Z,89.35
2023-05-06T04:46:51.820Z,88.55
2023-05-06T04:49:18.363Z,88.63
2023-05-06T04:51:44.967Z,93.13
2023-05-06T04:54:11.586Z,90.85
2023-05-06T04:56:38.469Z,93.25
2023-05-06T04:59:05.064Z,93.72
2023-05-06T05:01:31.717Z,98.35
2023-05-06T05:03:58.327Z,103.78
2023-05-06T05:06:24.969Z,103.32
2023-05-06T05:08:51.573Z,104.28
2023-05-06T05:11:18.224Z,106.18
2023-05-06T05:13:44.903Z,110.25
2023-05-06T05:16:11.471Z,113.40
2023-05-06T05:18:38.066Z,115.55
2023-05-06T05:21:04.775Z,120.28
2023-05-06T05:23:31.336Z,123.15
2023-05-06T05:25:57.937Z,126.05
2023-05-06T05:28:24.504Z,126.85
2023-05-06T05:30:51.244Z,127.22
2023-05-06T05:33:17.947Z,131.23
2023-05-06T05:35:44.602Z,133.75
2023-05-06T05:38:12.992Z,137.52
2023-05-06T05:40:39.616Z,134.52
2023-05-06T05:43:06.187Z,133.20
2023-05-06T05:45:32.746Z,137.27
2023-05-06T05:47:59.352Z,139.93
2023-05-06T05:50:26.363Z,140.35
2023-05-06T05:52:52.964Z,143.70
2023-05-06T05:55:19.620Z,141.98
2023-05-06T05:57:46.163Z,146.30
2023-05-06T06:00:13.836Z,145.82
2023-05-06T06:02:41.215Z,145.35
2023-05-06T06:05:08.280Z,151.63
2023-05-06T06:07:34.994Z,156.13
2023-05-06T06:10:01.566Z,164.63
2023-05-06T06:12:28.154Z,153.15
2023-05-06T06:14:54.747Z,147.27
2023-05-06T06:17:21.504Z,133.15
2023-05-06T06:19:48.087Z,109.32
2023-05-06T06:22:14.654Z,101.47
2023-05-06T06:24:41.410Z,92.45
2023-05-06T06:27:07.996Z,91.70
2023-05-06T06:29:34.559Z,100.07
2023-05-06T06:32:03.545Z,102.80
2023-05-06T06:34:30.367Z,132.70
2023-05-06T06:36:56.914Z,151.10
2023-05-06T06:39:23.564Z,124.72
2023-05-06T06:41:50.223Z,142.55
2023-05-06T06:44:16.877Z,190.15
2023-05-06T06:46:43.477Z,180.13
2023-05-06T06:49:10.072Z,182.10
2023-05-06T06:51:36.670Z,162.65
2023-05-06T06:54:03.314Z,150.18
2023-05-06T06:56:29.966Z,123.93
2023-05-06T06:58:56.523Z,98.45
2023-05-06T07:01:23.134Z,74.57
2023-05-06T07:03:49.807Z,65.88
2023-05-06T07:06:16.412Z,55.15
2023-05-06T07:08:42.955Z,44.05
2023-05-06T07:11:09.554Z,40.83
2023-05-06T07:13:36.491Z,39.70
2023-05-06T07:16:03.217Z,43.30
2023-05-06T07:18:29.823Z,49.08
2023-05-06T07:20:56.528Z,60.78
2023-05-06T07:23:23.159Z,64.45
2023-05-06T07:25:50.139Z,100.88
2023-05-06T07:28:16.755Z,116.85
2023-05-06T07:30:43.464Z,128.55
2023-05-06T07:33:10.117Z,138.10
2023-05-06T07:35:37.540Z,162.43
2023-05-06T07:38:04.294Z,182.32
2023-05-06T07:40:30.918Z,173.45
2023-05-06T07:42:57.552Z,169.90
2023-05-06T07:45:25.187Z,173.77
2023-05-06T07:47:52.068Z,178.00
2023-05-06T07:50:18.819Z,155.05
2023-05-06T07:52:45.512Z,127.25
2023-05-06T07:55:12.300Z,108.13
2023-05-06T07:57:39.096Z,80.20
2023-05-06T08:00:06.530Z,70.85
2023-05-06T08:02:33.307Z,53.45
2023-05-06T08:05:00.273Z,38.75
2023-05-06T08:07:26.841Z,22.77
2023-05-06T08:09:53.518Z,31.45
2023-05-06T08:12:20.048Z,24.27
2023-05-06T08:14:46.851Z,25.50
2023-05-06T08:17:13.705Z,18.40
2023-05-06T08:19:40.500Z,17.50
2023-05-06T08:22:07.107Z,20.40
2023-05-06T08:24:33.759Z,24.17
2023-05-06T08:27:00.320Z,17.15
2023-05-06T08:29:26.866Z,19.90
2023-05-06T08:31:53.580Z,21.42
2023-05-06T08:34:21.286Z,23.92
2023-05-06T08:36:48.932Z,30.40
2023-05-06T08:39:15.594Z,32.10
2023-05-06T08:41:48.436Z,33.35
2023-05-06T08:44:18.771Z,27.95
2023-05-06T08:46:46.821Z,29.08
2023-05-06T08:49:13.482Z,22.95
2023-05-06T08:51:43.940Z,24.52
2023-05-06T08:54:12.460Z,24.85
2023-05-06T08:56:42.156Z,22.52
2023-05-06T08:59:13.638Z,18.85
2023-05-06T09:01:40.958Z,17.58
2023-05-06T09:04:08.072Z,16.67
2023-05-06T09:06:34.820Z,14.63
2023-05-06T09:09:01.352Z,14.50
2023-05-06T09:11:30.022Z,15.35
2023-05-06T09:14:12.883Z,16.40
2023-05-06T09:16:44.155Z,15.35
2023-05-06T09:19:11.157Z,18.88
2023-05-06T09:21:44.110Z,16.65
2023-05-06T09:24:11.970Z,16.13
2023-05-06T09:26:42.701Z,15.73
2023-05-06T09:29:09.920Z,16.13
2023-05-06T09:31:47.289Z,15.30
2023-05-06T09:34:15.682Z,16.60
2023-05-06T09:36:42.367Z,16.50
2023-05-06T09:39:10.205Z,15.98
2023-05-06T09:41:37.481Z,16.25
2023-05-06T09:44:04.459Z,15.88
2023-05-06T09:46:31.432Z,14.70
2023-05-06T09:48:58.982Z,14.07
2023-05-06T09:51:27.971Z,13.23
2023-05-06T09:53:57.035Z,13.55
2023-05-06T09:56:24.917Z,12.93
2023-05-06T09:58:52.564Z,14.05
2023-05-06T10:01:32.637Z,14.20
2023-05-06T10:04:06.096Z,13.27
2023-05-06T10:06:35.618Z,13.25
2023-05-06T10:09:02.568Z,13.85
2023-05-06T10:11:31.351Z,14.65
2023-05-06T10:14:00.369Z,14.32
2023-05-06T10:16:27.600Z,13.85
2023-05-06T10:18:55.506Z,14.77
2023-05-06T10:21:27.708Z,13.98
2023-05-06T10:24:01.168Z,14.55
2023-05-06T10:26:31.030Z,13.68
2023-05-06T10:29:01.278Z,12.75
2023-05-06T10:31:30.101Z,13.88
2023-05-06T10:34:01.088Z,14.13
2023-05-06T10:36:32.160Z,13.90
2023-05-06T10:39:03.893Z,14.98
2023-05-06T10:41:31.365Z,14.65
2023-05-06T10:43:59.424Z,13.57
2023-05-06T10:46:29.920Z,14.00
2023-05-06T10:49:08.976Z,13.80
2023-05-06T10:51:36.577Z,13.18
2023-05-06T10:54:10.846Z,14.48
2023-05-06T10:57:02.665Z,14.80
2023-05-06T10:59:30.058Z,15.63
2023-05-06T11:02:08.474Z,14.98
2023-05-06T11:04:35.659Z,14.55
2023-05-06T11:07:11.785Z,14.73
2023-05-06T11:09:54.000Z,14.45
2023-05-06T11:12:21.965Z,14.82
2023-05-06T11:14:48.551Z,15.05
2023-05-06T11:17:34.223Z,13.90
2023-05-06T11:20:21.402Z,14.07
2023-05-06T11:22:48.063Z,14.48
2023-05-06T11:25:14.997Z,15.13
2023-05-06T11:27:42.737Z,14.73
2023-05-06T11:30:14.789Z,13.35
2023-05-06T11:32:44.035Z,14.05
2023-05-06T11:35:11.880Z,14.18
2023-05-06T11:37:38.504Z,13.70
2023-05-06T11:40:14.142Z,13.10
2023-05-06T11:42:41.080Z,13.82
2023-05-06T11:45:08.782Z,14.10
2023-05-06T11:47:35.682Z,13.88
2023-05-06T11:50:07.546Z,13.88
2023-05-06T11:52:35.657Z,13.95
2023-05-06T11:55:02.251Z,13.45
2023-05-06T11:57:29.971Z,13.68
2023-05-06T11:59:56.560Z,13.63
2023-05-06T12:02:23.189Z,13.60
2023-05-06T12:04:53.272Z,13.50
2023-05-06T12:07:20.038Z,13.90
2023-05-06T12:09:48.956Z,13.55
2023-05-06T12:12:17.927Z,13.13
2023-05-06T12:14:46.366Z,14.70
2023-05-06T12:17:13.646Z,13.25
2023-05-06T12:19:40.558Z,13.60
2023-05-06T12:22:18.385Z,13.05
2023-05-06T12:24:46.219Z,14.90
2023-05-06T12:27:12.916Z,14.20
2023-05-06T12:29:39.669Z,13.95
2023-05-06T12:32:10.571Z,14.32
2023-05-06T12:34:41.397Z,14.90
2023-05-06T12:37:11.499Z,14.75
2023-05-06T12:39:39.627Z,14.77
2023-05-06T12:42:06.663Z,15.38
2023-05-06T12:44:38.614Z,15.60
2023-05-06T12:47:10.014Z,15.95
2023-05-06T12:49:48.686Z,15.73
2023-05-06T12:52:16.786Z,16.85
2023-05-06T12:54:43.484Z,16.67
2023-05-06T12:57:10.234Z,15.20
2023-05-06T12:59:37.371Z,16.83
2023-05-06T13:02:05.467Z,15.50
2023-05-06T13:04:32.380Z,15.85
2023-05-06T13:06:58.972Z,16.25
2023-05-06T13:09:25.992Z,16.52
2023-05-06T13:11:52.863Z,15.27
2023-05-06T13:14:19.544Z,16.13
2023-05-06T13:16:46.560Z,16.42
2023-05-06T13:19:31.027Z,16.95
2023-05-06T13:21:58.947Z,16.15
2023-05-06T13:24:25.646Z,16.90
2023-05-06T13:26:52.445Z,16.50
2023-05-06T13:29:19.108Z,16.85
2023-05-06T13:31:46.060Z,16.25
2023-05-06T13:34:12.857Z,17.10
2023-05-06T13:36:39.481Z,15.73
2023-05-06T13:39:06.071Z,17.00
2023-05-06T13:41:32.855Z,17.80
2023-05-06T13:43:59.509Z,16.10
2023-05-06T13:46:29.417Z,16.55
2023-05-06T13:48:56.104Z,16.73
2023-05-06T13:51:22.753Z,16.33
2023-05-06T13:53:49.423Z,16.42
2023-05-06T13:56:15.964Z,17.65
2023-05-06T13:58:42.574Z,17.85
2023-05-06T14:01:09.145Z,16.48
2023-05-06T14:03:35.861Z,17.13
2023-05-06T14:06:02.471Z,16.38
2023-05-06T14:08:29.036Z,17.77
2023-05-06T14:10:55.607Z,18.02
2023-05-06T14:13:22.226Z,17.05
2023-05-06T14:15:48.955Z,17.85
2023-05-06T14:18:15.944Z,18.60
2023-05-06T14:20:42.574Z,17.58
2023-05-06T14:23:09.139Z,17.65
2023-05-06T14:25:35.803Z,19.90
2023-05-06T14:28:02.425Z,17.77
2023-05-06T14:30:29.979Z,19.25
2023-05-06T14:32:56.569Z,19.65
2023-05-06T14:35:23.285Z,19.30
2023-05-06T14:37:50.001Z,20.98
2023-05-06T14:40:17.096Z,20.73
2023-05-06T14:42:44.239Z,20.35
2023-05-06T14:45:11.727Z,20.90
2023-05-06T14:47:40.060Z,22.15
2023-05-06T14:50:09.577Z,24.08
2023-05-06T14:52:41.072Z,25.35
2023-05-06T14:55:10.163Z,28.83
2023-05-06T14:57:36.969Z,24.85
2023-05-06T15:00:08.576Z,28.10
2023-05-06T15:02:35.155Z,29.15
2023-05-06T15:05:03.950Z,27.77
2023-05-06T15:07:30.891Z,26.70
2023-05-06T15:09:57.479Z,24.70
2023-05-06T15:12:24.071Z,22.80
2023-05-06T15:14:50.618Z,22.85
2023-05-06T15:17:17.204Z,21.73
2023-05-06T15:19:43.753Z,18.20
2023-05-06T15:22:10.342Z,17.52
2023-05-06T15:24:37.006Z,15.93
2023-05-06T15:27:03.674Z,16.27
2023-05-06T15:29:30.333Z,16.77
2023-05-06T15:31:56.941Z,18.33
2023-05-06T15:34:24.516Z,17.00
2023-05-06T15:36:53.318Z,17.48
2023-05-06T15:39:20.152Z,16.58
2023-05-06T15:41:47.446Z,16.15
2023-05-06T15:44:16.320Z,14.88
2023-05-06T15:46:43.591Z,14.88
2023-05-06T15:49:40.360Z,14.13
2023-05-06T15:51:59.070Z,15.25
2023-05-06T15:54:27.370Z,16.45
2023-05-06T15:56:53.959Z,21.15
2023-05-06T15:59:20.629Z,18.15
2023-05-06T16:04:17.047Z,18.83
2023-05-06T16:06:43.814Z,20.90
2023-05-06T16:09:10.453Z,17.95
2023-05-06T16:11:37.057Z,21.38
2023-05-06T16:14:04.127Z,16.83
2023-05-06T16:16:30.799Z,14.30
2023-05-06T16:18:57.441Z,14.23
2023-05-06T16:21:24.066Z,14.15
2023-05-06T16:23:50.820Z,14.60
2023-05-06T16:26:17.610Z,13.02
2023-05-06T16:28:45.665Z,15.00
2023-05-06T16:31:12.301Z,14.65
2023-05-06T16:33:39.026Z,14.32
2023-05-06T16:36:06.156Z,14.20
2023-05-06T16:38:32.723Z,15.85
2023-05-06T16:40:59.304Z,15.73
2023-05-06T16:43:25.983Z,16.48
2023-05-06T16:45:52.547Z,17.58
2023-05-06T16:48:19.165Z,21.13
2023-05-06T16:50:46.017Z,19.10
2023-05-06T16:53:12.759Z,21.85
2023-05-06T16:55:39.729Z,21.02
2023-05-06T16:58:06.368Z,25.13
2023-05-06T17:00:33.052Z,29.52
2023-05-06T17:02:59.857Z,36.53
2023-05-06T17:05:28.015Z,40.00
2023-05-06T17:07:54.586Z,39.33
2023-05-06T17:10:22.009Z,32.90
2023-05-06T17:12:48.710Z,32.17
2023-05-06T17:15:16.062Z,31.83
2023-05-06T17:17:42.801Z,30.98
2023-05-06T17:20:09.938Z,26.67
2023-05-06T17:22:37.369Z,24.40
2023-05-06T17:25:04.233Z,24.17
2023-05-06T17:27:30.907Z,21.75
2023-05-06T17:29:58.589Z,20.25
2023-05-06T17:32:25.496Z,20.92
2023-05-06T17:34:52.221Z,20.48
2023-05-06T17:37:18.816Z,20.67
2023-05-06T17:39:46.343Z,19.88
2023-05-06T17:42:13.446Z,20.90
2023-05-06T17:44:42.630Z,20.55
2023-05-06T17:47:10.019Z,19.17
2023-05-06T17:49:36.857Z,18.40
2023-05-06T17:52:03.660Z,19.13
2023-05-06T17:54:34.829Z,18.92
2023-05-06T17:57:03.353Z,19.33
2023-05-06T17:59:30.061Z,19.17
2023-05-06T18:01:56.750Z,19.85
2023-05-06T18:04:23.537Z,21.95
2023-05-06T18:06:50.124Z,21.95
2023-05-06T18:09:16.718Z,28.70
2023-05-06T18:11:44.276Z,31.98
2023-05-06T18:14:11.385Z,41.05
2023-05-06T18:16:38.111Z,44.00
2023-05-06T18:19:05.287Z,56.95
2023-05-06T18:21:33.981Z,76.80
2023-05-06T18:24:10.244Z,83.20
2023-05-06T18:26:45.354Z,88.40
2023-05-06T18:29:12.746Z,99.88
2023-05-06T18:31:39.481Z,103.45
2023-05-06T18:34:06.144Z,109.57
2023-05-06T18:36:33.603Z,111.78
2023-05-06T18:39:01.294Z,115.00
2023-05-06T18:41:27.939Z,110.28
2023-05-06T18:43:54.556Z,105.40
2023-05-06T18:46:21.484Z,98.15
2023-05-06T18:48:48.231Z,90.68
2023-05-06T18:51:17.326Z,82.07
2023-05-06T18:53:44.864Z,68.85
2023-05-06T18:56:14.137Z,67.25
2023-05-06T18:58:41.055Z,50.75
2023-05-06T19:01:09.203Z,47.35
2023-05-06T19:03:36.405Z,41.45
2023-05-06T19:06:04.741Z,33.40
2023-05-06T19:08:32.253Z,25.83
2023-05-06T19:10:59.698Z,22.83
2023-05-06T19:13:26.640Z,20.15
2023-05-06T19:15:54.420Z,21.70
2023-05-06T19:18:21.023Z,19.83
2023-05-06T19:20:47.608Z,21.40
2023-05-06T19:23:14.160Z,23.23
2023-05-06T19:25:40.924Z,28.25
2023-05-06T19:28:07.586Z,41.38
2023-05-06T19:30:35.488Z,47.30
2023-05-06T19:33:02.477Z,67.72
2023-05-06T19:35:29.228Z,86.60
2023-05-06T19:37:56.181Z,117.95
2023-05-06T19:40:22.947Z,127.60
2023-05-06T19:42:49.693Z,140.60
2023-05-06T19:45:18.805Z,165.82
2023-05-06T19:47:45.887Z,184.05
2023-05-06T19:50:13.083Z,186.13
2023-05-06T19:52:39.959Z,185.95
2023-05-06T19:55:07.188Z,174.95
2023-05-06T19:57:34.015Z,186.02
2023-05-06T20:00:05.432Z,198.27
2023-05-06T20:02:32.957Z,187.95
2023-05-06T20:05:00.676Z,198.85
2023-05-06T20:07:27.592Z,207.85
2023-05-06T20:09:56.041Z,228.93
2023-05-06T20:12:24.290Z,223.50
2023-05-06T20:14:50.881Z,233.85
2023-05-06T20:17:17.447Z,241.02
2023-05-06T20:19:45.417Z,239.15
2023-05-06T20:22:12.308Z,272.85
2023-05-06T20:24:43.751Z,289.98
2023-05-06T20:27:10.687Z,307.98
2023-05-06T20:29:37.273Z,282.55
2023-05-06T20:32:04.284Z,294.30
2023-05-06T20:34:31.445Z,282.65
2023-05-06T20:36:58.214Z,260.23
2023-05-06T20:39:24.859Z,257.95
2023-05-06T20:41:51.513Z,261.55
2023-05-06T20:44:18.060Z,266.23
2023-05-06T20:46:44.672Z,296.95
2023-05-06T20:49:11.792Z,314.75
2023-05-06T20:51:38.428Z,325.38
2023-05-06T20:54:05.009Z,335.25
2023-05-06T20:56:31.661Z,350.20
2023-05-06T20:58:58.255Z,335.98
2023-05-06T21:01:43.749Z,326.02
2023-05-06T21:04:10.473Z,314.88
2023-05-06T21:06:37.122Z,321.02
2023-05-06T21:09:03.790Z,319.23
2023-05-06T21:11:30.370Z,333.00
2023-05-06T21:13:57.871Z,350.10
2023-05-06T21:16:24.580Z,348.45
2023-05-06T21:18:51.385Z,365.77
2023-05-06T21:21:18.056Z,353.10
2023-05-06T21:23:44.679Z,354.42
2023-05-06T21:26:12.661Z,353.48
2023-05-06T21:28:39.226Z,334.00
2023-05-06T21:31:05.863Z,330.58
2023-05-06T21:33:32.741Z,329.20
2023-05-06T21:35:59.506Z,296.05
2023-05-06T21:38:27.841Z,306.55
2023-05-06T21:40:55.056Z,322.73
2023-05-06T21:43:21.713Z,323.55
2023-05-06T21:45:48.289Z,334.05
2023-05-06T21:48:14.900Z,330.08
2023-05-06T21:50:41.466Z,328.10
2023-05-06T21:53:08.080Z,323.70
2023-05-06T21:55:34.758Z,326.48
2023-05-06T21:58:01.440Z,342.25
2023-05-06T22:00:28.182Z,326.80
2023-05-06T22:02:54.935Z,319.17
2023-05-06T22:05:21.605Z,305.77
2023-05-06T22:07:48.319Z,305.35
2023-05-06T22:10:15.031Z,257.90
2023-05-06T22:12:41.710Z,221.68
2023-05-06T22:15:09.302Z,195.98
2023-05-06T22:17:36.597Z,213.95
2023-05-06T22:20:04.521Z,178.98
2023-05-06T22:22:31.639Z,169.18
2023-05-06T22:24:58.237Z,165.55
2023-05-06T22:27:24.905Z,146.63
2023-05-06T22:29:51.476Z,135.77
2023-05-06T22:32:18.353Z,129.07
2023-05-06T22:34:44.934Z,112.80
2023-05-06T22:37:11.515Z,91.55
2023-05-06T22:39:39.141Z,100.88
2023-05-06T22:42:05.724Z,102.57
2023-05-06T22:44:32.638Z,97.40
2023-05-06T22:46:59.294Z,93.68
2023-05-06T22:49:28.904Z,90.10
2023-05-06T22:51:56.999Z,77.18
2023-05-06T22:54:24.574Z,73.57
2023-05-06T22:56:51.355Z,70.75
2023-05-06T22:59:18.101Z,67.03
2023-05-06T23:01:44.809Z,69.38
2023-05-06T23:04:11.622Z,68.47
2023-05-06T23:06:39.943Z,66.80
2023-05-06T23:09:07.820Z,62.10
2023-05-06T23:11:34.493Z,59.85
2023-05-06T23:14:01.302Z,57.85
2023-05-06T23:16:29.532Z,58.17
2023-05-06T23:18:59.544Z,54.08
2023-05-06T23:21:26.781Z,51.70
2023-05-06T23:23:53.378Z,49.63
2023-05-06T23:26:19.963Z,50.00
2023-05-06T23:28:46.514Z,47.22
2023-05-06T23:31:13.226Z,44.75
2023-05-06T23:33:39.865Z,45.58
2023-05-06T23:36:08.154Z,48.50
2023-05-06T23:38:34.820Z,50.08
2023-05-06T23:41:01.448Z,56.97
2023-05-06T23:43:28.012Z,55.10
2023-05-06T23:45:54.611Z,57.17
2023-05-06T23:48:21.165Z,59.45
2023-05-06T23:50:48.792Z,61.58
2023-05-06T23:53:15.338Z,64.40
2023-05-06T23:55:42.942Z,64.45
2023-05-06T23:58:09.719Z,63.45
